Hamersville, OH (45130)

8:07 AM EDT on September 04, 2015 (GMT -0400)
Hamersville, Ohio 45130 | | Change Station
CLOSE
Current Station
Personal Weather Station
Location: Hamersville, OH
Elevation: 968 ft
Nearby Weather Stations

Elev 968 ft 38.90 °N, 83.94 °W | Updated 1 minute ago

Clear
Clear
67.3 °F
Feels Like 67.3 °F
N
0.0
Wind Variable Wind from South

Today
High -- | Low -- °F
--% Chance of Precip.
Yesterday
High -- | Low -- °F
Precip. -- in
7:07 AM 8:02 PM
Waning Gibbous, 60% visible
Pressure 30.05 in
Visibility 5.0 miles
Clouds Clear
Dew Point 67 °F
Humidity 99%
Rainfall 0.00 in
Snow Depth Not available.
UV 0 out of 12
Pollen 9.90 out of 12
Air Quality Not available.
Flu Activity Not available.
METAR KI69 041154Z AUTO 00000KT 5SM BR CLR 20/20 A3005 RMK AO2 T02000200 10212 20192
Pressure 30.05 in
Visibility 5.0 miles
Clouds Clear
Dew Point 67 °F
Humidity 99%
Rainfall 0.00 in
Snow Depth Not available.
UV 0 out of 12
Pollen 9.90 out of 12
Air Quality Not available.
Flu Activity Not available.
METAR KI69 041154Z AUTO 00000KT 5SM BR CLR 20/20 A3005 RMK AO2 T02000200 10212 20192

10-Day Weather Forecast

×

Almanac

Astronomy

Sep. 04, 2015 Rise Set
Actual Time
Civil Twilight
Nautical Twilight
Astronomical Twilight
Moon
Length of Visible Light
Length of Day
Tomorrow will be .
, % of the Moon is Illuminated

Today's Extremes

State Highs State Lows

Community

WunderPhotos

Upload Photos

1,852,161 photos uploaded!

WunderBlogs® & News

Nearby

Air Quality

  Air Quality AQ Index Pollutant
Not available.

Snow Depth

Station Depth Elevation

Earthquake Activity

City Distance Mag. Time & Date
Minimum magnitude displayed is 2.5.

Coastal Water Temperatures

Place Temperature

Stations

Nearby Weather Stations

Station Location Temp. Windchill Dew Point Humidity Wind Precip. Elev Updated Type